sensor_id;sensor_type;location;lat;lon;timestamp;P1;durP1;ratioP1;P2;durP2;ratioP2
34030;SDS011;20319;28.466;-16.274;2022-07-06T00:02:03;5.80;;;1.73;;
34030;SDS011;20319;28.466;-16.274;2022-07-06T00:04:29;4.28;;;1.33;;
34030;SDS011;20319;28.466;-16.274;2022-07-06T00:06:55;5.85;;;1.58;;
34030;SDS011;20319;28.466;-16.274;2022-07-06T00:09:20;5.07;;;1.60;;
34030;SDS011;20319;28.466;-16.274;2022-07-06T00:11:46;3.92;;;1.52;;
34030;SDS011;20319;28.466;-16.274;2022-07-06T00:14:12;3.92;;;1.40;;
34030;SDS011;20319;28.466;-16.274;2022-07-06T00:16:37;6.50;;;1.42;;
34030;SDS011;20319;28.466;-16.274;2022-07-06T00:19:03;4.88;;;1.50;;
34030;SDS011;20319;28.466;-16.274;2022-07-06T00:21:29;3.58;;;1.45;;
34030;SDS011;20319;28.466;-16.274;2022-07-06T00:23:54;4.93;;;1.70;;
34030;SDS011;20319;28.466;-16.274;2022-07-06T00:26:20;6.28;;;1.45;;
34030;SDS011;20319;28.466;-16.274;2022-07-06T00:28:46;5.68;;;1.50;;
34030;SDS011;20319;28.466;-16.274;2022-07-06T00:31:11;5.25;;;1.38;;
34030;SDS011;20319;28.466;-16.274;2022-07-06T00:33:37;5.68;;;1.52;;
34030;SDS011;20319;28.466;-16.274;2022-07-06T00:36:03;5.18;;;1.58;;
34030;SDS011;20319;28.466;-16.274;2022-07-06T00:38:29;4.35;;;1.58;;
34030;SDS011;20319;28.466;-16.274;2022-07-06T00:40:54;4.25;;;1.60;;
34030;SDS011;20319;28.466;-16.274;2022-07-06T00:43:26;5.90;;;1.55;;
34030;SDS011;20319;28.466;-16.274;2022-07-06T00:45:52;3.97;;;1.30;;
34030;SDS011;20319;28.466;-16.274;2022-07-06T00:48:18;5.43;;;1.25;;
34030;SDS011;20319;28.466;-16.274;2022-07-06T00:50:43;4.47;;;1.52;;
34030;SDS011;20319;28.466;-16.274;2022-07-06T00:53:09;4.53;;;1.50;;
34030;SDS011;20319;28.466;-16.274;2022-07-06T00:55:36;4.15;;;1.20;;
34030;SDS011;20319;28.466;-16.274;2022-07-06T00:58:06;4.38;;;1.40;;
34030;SDS011;20319;28.466;-16.274;2022-07-06T01:00:33;4.60;;;1.65;;
34030;SDS011;20319;28.466;-16.274;2022-07-06T01:02:59;5.72;;;1.35;;
34030;SDS011;20319;28.466;-16.274;2022-07-06T01:05:25;3.65;;;1.17;;
34030;SDS011;20319;28.466;-16.274;2022-07-06T01:07:51;5.47;;;1.30;;
34030;SDS011;20319;28.466;-16.274;2022-07-06T01:10:18;4.40;;;1.48;;
34030;SDS011;20319;28.466;-16.274;2022-07-06T01:12:45;4.93;;;1.63;;
34030;SDS011;20319;28.466;-16.274;2022-07-06T01:15:13;4.90;;;1.17;;
34030;SDS011;20319;28.466;-16.274;2022-07-06T01:17:40;3.00;;;1.20;;
34030;SDS011;20319;28.466;-16.274;2022-07-06T01:20:14;5.00;;;1.60;;
34030;SDS011;20319;28.466;-16.274;2022-07-06T01:22:44;5.40;;;1.58;;
34030;SDS011;20319;28.466;-16.274;2022-07-06T01:25:11;3.20;;;1.13;;
34030;SDS011;20319;28.466;-16.274;2022-07-06T01:27:37;5.25;;;1.38;;
34030;SDS011;20319;28.466;-16.274;2022-07-06T01:30:07;3.58;;;1.20;;
34030;SDS011;20319;28.466;-16.274;2022-07-06T01:32:35;4.78;;;1.40;;
34030;SDS011;20319;28.466;-16.274;2022-07-06T01:35:02;5.60;;;1.50;;
34030;SDS011;20319;28.466;-16.274;2022-07-06T01:37:30;3.92;;;1.20;;
34030;SDS011;20319;28.466;-16.274;2022-07-06T01:39:59;3.65;;;1.35;;
34030;SDS011;20319;28.466;-16.274;2022-07-06T01:42:29;4.13;;;1.20;;
34030;SDS011;20319;28.466;-16.274;2022-07-06T01:44:55;5.45;;;1.25;;
34030;SDS011;20319;28.466;-16.274;2022-07-06T01:47:21;5.00;;;1.23;;
34030;SDS011;20319;28.466;-16.274;2022-07-06T01:49:47;3.35;;;0.98;;
34030;SDS011;20319;28.466;-16.274;2022-07-06T01:52:13;4.15;;;1.10;;
34030;SDS011;20319;28.466;-16.274;2022-07-06T01:54:38;2.83;;;1.10;;
34030;SDS011;20319;28.466;-16.274;2022-07-06T01:57:04;5.55;;;1.33;;
34030;SDS011;20319;28.466;-16.274;2022-07-06T01:59:30;4.97;;;1.20;;
34030;SDS011;20319;28.466;-16.274;2022-07-06T02:01:55;5.53;;;1.55;;
34030;SDS011;20319;28.466;-16.274;2022-07-06T02:04:21;4.32;;;1.10;;
34030;SDS011;20319;28.466;-16.274;2022-07-06T02:06:47;4.80;;;1.23;;
34030;SDS011;20319;28.466;-16.274;2022-07-06T02:09:12;4.80;;;1.38;;
34030;SDS011;20319;28.466;-16.274;2022-07-06T02:11:38;5.78;;;1.45;;
34030;SDS011;20319;28.466;-16.274;2022-07-06T02:14:04;5.22;;;1.35;;
34030;SDS011;20319;28.466;-16.274;2022-07-06T02:16:29;5.35;;;1.25;;
34030;SDS011;20319;28.466;-16.274;2022-07-06T02:18:55;4.65;;;1.20;;
34030;SDS011;20319;28.466;-16.274;2022-07-06T02:21:20;3.92;;;1.35;;
34030;SDS011;20319;28.466;-16.274;2022-07-06T02:23:46;5.50;;;1.50;;
34030;SDS011;20319;28.466;-16.274;2022-07-06T02:26:12;5.10;;;1.10;;
34030;SDS011;20319;28.466;-16.274;2022-07-06T02:28:37;4.35;;;1.17;;
34030;SDS011;20319;28.466;-16.274;2022-07-06T02:31:03;7.90;;;1.60;;
34030;SDS011;20319;28.466;-16.274;2022-07-06T02:33:29;3.95;;;1.33;;
34030;SDS011;20319;28.466;-16.274;2022-07-06T02:35:55;3.28;;;1.10;;
34030;SDS011;20319;28.466;-16.274;2022-07-06T02:38:21;4.40;;;1.00;;
34030;SDS011;20319;28.466;-16.274;2022-07-06T02:40:46;3.05;;;1.00;;
34030;SDS011;20319;28.466;-16.274;2022-07-06T02:43:13;5.68;;;1.30;;
34030;SDS011;20319;28.466;-16.274;2022-07-06T02:45:38;3.63;;;1.42;;
34030;SDS011;20319;28.466;-16.274;2022-07-06T02:48:04;4.40;;;1.30;;
34030;SDS011;20319;28.466;-16.274;2022-07-06T02:50:30;3.55;;;1.20;;
34030;SDS011;20319;28.466;-16.274;2022-07-06T02:52:55;7.40;;;1.20;;
34030;SDS011;20319;28.466;-16.274;2022-07-06T02:55:21;5.55;;;1.23;;
34030;SDS011;20319;28.466;-16.274;2022-07-06T02:57:47;3.88;;;1.30;;
34030;SDS011;20319;28.466;-16.274;2022-07-06T03:00:12;5.07;;;1.50;;
34030;SDS011;20319;28.466;-16.274;2022-07-06T03:02:38;4.47;;;1.42;;
34030;SDS011;20319;28.466;-16.274;2022-07-06T03:05:04;4.55;;;1.38;;
34030;SDS011;20319;28.466;-16.274;2022-07-06T03:07:30;5.22;;;1.35;;
34030;SDS011;20319;28.466;-16.274;2022-07-06T03:09:56;5.97;;;1.50;;
34030;SDS011;20319;28.466;-16.274;2022-07-06T03:12:22;3.60;;;0.95;;
34030;SDS011;20319;28.466;-16.274;2022-07-06T03:14:54;5.80;;;1.33;;
34030;SDS011;20319;28.466;-16.274;2022-07-06T03:17:20;4.72;;;1.27;;
34030;SDS011;20319;28.466;-16.274;2022-07-06T03:19:46;3.55;;;1.20;;
34030;SDS011;20319;28.466;-16.274;2022-07-06T03:22:12;2.67;;;1.00;;
34030;SDS011;20319;28.466;-16.274;2022-07-06T03:24:37;5.35;;;1.63;;
34030;SDS011;20319;28.466;-16.274;2022-07-06T03:27:03;2.97;;;1.10;;
34030;SDS011;20319;28.466;-16.274;2022-07-06T03:29:29;5.15;;;1.30;;
34030;SDS011;20319;28.466;-16.274;2022-07-06T03:31:54;3.13;;;0.90;;
34030;SDS011;20319;28.466;-16.274;2022-07-06T03:34:20;4.97;;;1.20;;
34030;SDS011;20319;28.466;-16.274;2022-07-06T03:36:46;6.15;;;1.20;;
34030;SDS011;20319;28.466;-16.274;2022-07-06T03:39:11;4.80;;;1.15;;
34030;SDS011;20319;28.466;-16.274;2022-07-06T03:41:37;4.05;;;1.30;;
34030;SDS011;20319;28.466;-16.274;2022-07-06T03:44:03;6.85;;;1.38;;
34030;SDS011;20319;28.466;-16.274;2022-07-06T03:46:29;6.15;;;1.83;;
34030;SDS011;20319;28.466;-16.274;2022-07-06T03:48:54;3.30;;;1.08;;
34030;SDS011;20319;28.466;-16.274;2022-07-06T03:51:20;5.45;;;1.20;;
34030;SDS011;20319;28.466;-16.274;2022-07-06T03:53:45;6.60;;;1.35;;
34030;SDS011;20319;28.466;-16.274;2022-07-06T03:56:11;3.42;;;1.20;;
34030;SDS011;20319;28.466;-16.274;2022-07-06T03:58:58;3.38;;;1.20;;
34030;SDS011;20319;28.466;-16.274;2022-07-06T04:01:25;5.68;;;1.20;;
34030;SDS011;20319;28.466;-16.274;2022-07-06T04:03:51;4.32;;;1.25;;
34030;SDS011;20319;28.466;-16.274;2022-07-06T04:06:17;5.20;;;1.60;;
34030;SDS011;20319;28.466;-16.274;2022-07-06T04:08:43;3.50;;;1.13;;
34030;SDS011;20319;28.466;-16.274;2022-07-06T04:11:09;3.67;;;1.33;;
34030;SDS011;20319;28.466;-16.274;2022-07-06T04:13:35;5.47;;;1.40;;
34030;SDS011;20319;28.466;-16.274;2022-07-06T04:16:00;2.97;;;0.90;;
34030;SDS011;20319;28.466;-16.274;2022-07-06T04:18:26;5.13;;;1.92;;
34030;SDS011;20319;28.466;-16.274;2022-07-06T04:20:52;5.57;;;1.83;;
34030;SDS011;20319;28.466;-16.274;2022-07-06T04:23:17;5.05;;;1.92;;
34030;SDS011;20319;28.466;-16.274;2022-07-06T04:25:43;4.97;;;4.05;;
34030;SDS011;20319;28.466;-16.274;2022-07-06T04:28:09;4.20;;;1.88;;
34030;SDS011;20319;28.466;-16.274;2022-07-06T04:30:34;11.57;;;9.20;;
34030;SDS011;20319;28.466;-16.274;2022-07-06T04:33:00;4.97;;;2.92;;
34030;SDS011;20319;28.466;-16.274;2022-07-06T04:35:26;9.65;;;5.03;;
34030;SDS011;20319;28.466;-16.274;2022-07-06T04:37:51;13.52;;;8.48;;
34030;SDS011;20319;28.466;-16.274;2022-07-06T04:40:17;10.95;;;8.32;;
34030;SDS011;20319;28.466;-16.274;2022-07-06T04:42:43;13.45;;;9.82;;
34030;SDS011;20319;28.466;-16.274;2022-07-06T04:45:09;12.73;;;7.93;;
34030;SDS011;20319;28.466;-16.274;2022-07-06T04:47:34;15.35;;;8.07;;
34030;SDS011;20319;28.466;-16.274;2022-07-06T04:50:01;18.75;;;13.50;;
34030;SDS011;20319;28.466;-16.274;2022-07-06T04:52:27;13.25;;;11.13;;
34030;SDS011;20319;28.466;-16.274;2022-07-06T04:54:56;19.23;;;15.65;;
34030;SDS011;20319;28.466;-16.274;2022-07-06T04:57:21;21.73;;;19.48;;
34030;SDS011;20319;28.466;-16.274;2022-07-06T04:59:47;11.98;;;8.77;;
34030;SDS011;20319;28.466;-16.274;2022-07-06T05:02:13;7.95;;;6.05;;
34030;SDS011;20319;28.466;-16.274;2022-07-06T05:04:38;17.35;;;11.68;;
34030;SDS011;20319;28.466;-16.274;2022-07-06T05:07:04;5.90;;;3.33;;
34030;SDS011;20319;28.466;-16.274;2022-07-06T05:09:30;16.17;;;12.77;;
34030;SDS011;20319;28.466;-16.274;2022-07-06T05:11:56;7.78;;;3.33;;
34030;SDS011;20319;28.466;-16.274;2022-07-06T05:14:21;8.80;;;4.93;;
34030;SDS011;20319;28.466;-16.274;2022-07-06T05:16:47;13.20;;;9.43;;
34030;SDS011;20319;28.466;-16.274;2022-07-06T05:19:12;6.45;;;3.83;;
34030;SDS011;20319;28.466;-16.274;2022-07-06T05:21:38;8.40;;;2.92;;
34030;SDS011;20319;28.466;-16.274;2022-07-06T05:24:05;9.15;;;4.72;;
34030;SDS011;20319;28.466;-16.274;2022-07-06T05:26:31;7.93;;;6.10;;
34030;SDS011;20319;28.466;-16.274;2022-07-06T05:28:56;13.73;;;9.27;;
34030;SDS011;20319;28.466;-16.274;2022-07-06T05:31:22;9.50;;;6.25;;
34030;SDS011;20319;28.466;-16.274;2022-07-06T05:33:47;3.97;;;1.92;;
34030;SDS011;20319;28.466;-16.274;2022-07-06T05:36:13;6.85;;;2.63;;
34030;SDS011;20319;28.466;-16.274;2022-07-06T05:38:39;5.78;;;1.88;;
34030;SDS011;20319;28.466;-16.274;2022-07-06T05:41:04;11.05;;;7.03;;
34030;SDS011;20319;28.466;-16.274;2022-07-06T05:43:30;10.57;;;7.40;;
34030;SDS011;20319;28.466;-16.274;2022-07-06T05:45:55;6.70;;;5.63;;
34030;SDS011;20319;28.466;-16.274;2022-07-06T05:48:21;6.05;;;3.08;;
34030;SDS011;20319;28.466;-16.274;2022-07-06T05:53:31;3.70;;;1.30;;
34030;SDS011;20319;28.466;-16.274;2022-07-06T05:55:56;7.88;;;3.30;;
34030;SDS011;20319;28.466;-16.274;2022-07-06T05:58:22;6.18;;;2.08;;
34030;SDS011;20319;28.466;-16.274;2022-07-06T06:00:52;3.22;;;1.80;;
34030;SDS011;20319;28.466;-16.274;2022-07-06T06:03:18;5.53;;;2.00;;
34030;SDS011;20319;28.466;-16.274;2022-07-06T06:05:43;6.18;;;2.13;;
34030;SDS011;20319;28.466;-16.274;2022-07-06T06:08:10;6.13;;;1.60;;
34030;SDS011;20319;28.466;-16.274;2022-07-06T06:10:35;4.93;;;1.88;;
34030;SDS011;20319;28.466;-16.274;2022-07-06T06:13:01;5.53;;;1.63;;
34030;SDS011;20319;28.466;-16.274;2022-07-06T06:15:27;3.75;;;1.23;;
34030;SDS011;20319;28.466;-16.274;2022-07-06T06:17:53;6.35;;;1.50;;
34030;SDS011;20319;28.466;-16.274;2022-07-06T06:20:19;4.10;;;1.38;;
34030;SDS011;20319;28.466;-16.274;2022-07-06T06:22:48;3.80;;;1.17;;
34030;SDS011;20319;28.466;-16.274;2022-07-06T06:25:16;4.03;;;1.52;;
34030;SDS011;20319;28.466;-16.274;2022-07-06T06:27:44;3.10;;;1.30;;
34030;SDS011;20319;28.466;-16.274;2022-07-06T06:30:10;3.38;;;1.30;;
34030;SDS011;20319;28.466;-16.274;2022-07-06T06:32:37;4.13;;;1.40;;
34030;SDS011;20319;28.466;-16.274;2022-07-06T06:35:04;5.75;;;1.75;;
34030;SDS011;20319;28.466;-16.274;2022-07-06T06:37:31;3.58;;;1.25;;
34030;SDS011;20319;28.466;-16.274;2022-07-06T06:39:56;5.53;;;1.80;;
34030;SDS011;20319;28.466;-16.274;2022-07-06T06:42:22;6.57;;;1.63;;
34030;SDS011;20319;28.466;-16.274;2022-07-06T06:44:55;3.45;;;1.20;;
34030;SDS011;20319;28.466;-16.274;2022-07-06T06:47:22;3.97;;;1.20;;
34030;SDS011;20319;28.466;-16.274;2022-07-06T06:49:48;5.47;;;1.30;;
34030;SDS011;20319;28.466;-16.274;2022-07-06T06:52:15;4.05;;;1.63;;
34030;SDS011;20319;28.466;-16.274;2022-07-06T06:54:41;6.95;;;1.75;;
34030;SDS011;20319;28.466;-16.274;2022-07-06T06:57:06;4.13;;;1.38;;
34030;SDS011;20319;28.466;-16.274;2022-07-06T06:59:32;6.25;;;1.40;;
34030;SDS011;20319;28.466;-16.274;2022-07-06T07:01:58;6.10;;;1.45;;
34030;SDS011;20319;28.466;-16.274;2022-07-06T07:04:23;4.22;;;1.30;;
34030;SDS011;20319;28.466;-16.274;2022-07-06T07:06:57;7.47;;;1.33;;
34030;SDS011;20319;28.466;-16.274;2022-07-06T07:09:22;6.45;;;1.60;;
34030;SDS011;20319;28.466;-16.274;2022-07-06T07:11:48;4.97;;;1.17;;
34030;SDS011;20319;28.466;-16.274;2022-07-06T07:14:14;4.95;;;1.42;;
34030;SDS011;20319;28.466;-16.274;2022-07-06T07:16:39;4.80;;;1.30;;
34030;SDS011;20319;28.466;-16.274;2022-07-06T07:19:05;4.75;;;1.20;;
34030;SDS011;20319;28.466;-16.274;2022-07-06T07:21:30;5.97;;;1.40;;
34030;SDS011;20319;28.466;-16.274;2022-07-06T07:23:56;6.68;;;1.50;;
34030;SDS011;20319;28.466;-16.274;2022-07-06T07:26:22;5.05;;;1.23;;
34030;SDS011;20319;28.466;-16.274;2022-07-06T07:28:47;3.90;;;1.38;;
34030;SDS011;20319;28.466;-16.274;2022-07-06T07:31:13;3.60;;;1.27;;
34030;SDS011;20319;28.466;-16.274;2022-07-06T07:33:38;6.85;;;1.30;;
34030;SDS011;20319;28.466;-16.274;2022-07-06T07:36:04;4.20;;;1.20;;
34030;SDS011;20319;28.466;-16.274;2022-07-06T07:38:30;4.25;;;1.25;;
34030;SDS011;20319;28.466;-16.274;2022-07-06T07:40:56;6.25;;;1.60;;
34030;SDS011;20319;28.466;-16.274;2022-07-06T07:43:21;3.95;;;1.30;;
34030;SDS011;20319;28.466;-16.274;2022-07-06T07:45:53;4.40;;;1.30;;
34030;SDS011;20319;28.466;-16.274;2022-07-06T07:48:25;3.83;;;1.10;;
34030;SDS011;20319;28.466;-16.274;2022-07-06T07:50:51;4.80;;;1.30;;
34030;SDS011;20319;28.466;-16.274;2022-07-06T07:53:17;3.53;;;1.17;;
34030;SDS011;20319;28.466;-16.274;2022-07-06T07:55:43;5.13;;;1.42;;
34030;SDS011;20319;28.466;-16.274;2022-07-06T07:58:08;2.50;;;0.90;;
34030;SDS011;20319;28.466;-16.274;2022-07-06T08:00:37;4.18;;;1.35;;
34030;SDS011;20319;28.466;-16.274;2022-07-06T08:03:17;3.20;;;1.23;;
34030;SDS011;20319;28.466;-16.274;2022-07-06T08:05:43;2.72;;;1.13;;
34030;SDS011;20319;28.466;-16.274;2022-07-06T08:08:11;4.70;;;1.30;;
34030;SDS011;20319;28.466;-16.274;2022-07-06T08:10:44;3.65;;;1.40;;
34030;SDS011;20319;28.466;-16.274;2022-07-06T08:13:10;5.10;;;1.30;;
34030;SDS011;20319;28.466;-16.274;2022-07-06T08:15:36;5.55;;;1.48;;
34030;SDS011;20319;28.466;-16.274;2022-07-06T08:18:04;6.13;;;1.52;;
34030;SDS011;20319;28.466;-16.274;2022-07-06T08:20:29;6.47;;;1.50;;
34030;SDS011;20319;28.466;-16.274;2022-07-06T08:22:58;7.25;;;4.45;;
34030;SDS011;20319;28.466;-16.274;2022-07-06T08:25:24;8.48;;;5.20;;
34030;SDS011;20319;28.466;-16.274;2022-07-06T08:27:49;5.72;;;1.98;;
34030;SDS011;20319;28.466;-16.274;2022-07-06T08:30:15;6.72;;;3.28;;
34030;SDS011;20319;28.466;-16.274;2022-07-06T08:32:40;5.22;;;2.65;;
34030;SDS011;20319;28.466;-16.274;2022-07-06T08:35:08;5.80;;;1.40;;
34030;SDS011;20319;28.466;-16.274;2022-07-06T08:37:34;6.40;;;1.88;;
34030;SDS011;20319;28.466;-16.274;2022-07-06T08:40:00;6.22;;;3.75;;
34030;SDS011;20319;28.466;-16.274;2022-07-06T08:42:27;6.13;;;4.05;;
34030;SDS011;20319;28.466;-16.274;2022-07-06T08:44:56;11.35;;;8.15;;
34030;SDS011;20319;28.466;-16.274;2022-07-06T08:47:24;6.93;;;5.07;;
34030;SDS011;20319;28.466;-16.274;2022-07-06T08:49:52;7.20;;;2.22;;
34030;SDS011;20319;28.466;-16.274;2022-07-06T08:52:19;4.82;;;1.55;;
34030;SDS011;20319;28.466;-16.274;2022-07-06T08:54:44;8.82;;;6.80;;
34030;SDS011;20319;28.466;-16.274;2022-07-06T08:57:10;5.95;;;2.40;;
34030;SDS011;20319;28.466;-16.274;2022-07-06T08:59:37;7.85;;;3.70;;
34030;SDS011;20319;28.466;-16.274;2022-07-06T09:02:04;5.00;;;3.42;;
34030;SDS011;20319;28.466;-16.274;2022-07-06T09:04:34;6.53;;;3.55;;
34030;SDS011;20319;28.466;-16.274;2022-07-06T09:07:02;6.40;;;2.08;;
34030;SDS011;20319;28.466;-16.274;2022-07-06T09:09:29;6.07;;;3.42;;
34030;SDS011;20319;28.466;-16.274;2022-07-06T09:11:58;3.85;;;1.80;;
34030;SDS011;20319;28.466;-16.274;2022-07-06T09:14:27;29.80;;;9.43;;
34030;SDS011;20319;28.466;-16.274;2022-07-06T09:17:04;53.97;;;21.10;;
34030;SDS011;20319;28.466;-16.274;2022-07-06T09:19:31;19.90;;;8.40;;
34030;SDS011;20319;28.466;-16.274;2022-07-06T09:21:57;15.25;;;6.70;;
34030;SDS011;20319;28.466;-16.274;2022-07-06T09:24:23;9.98;;;3.97;;
34030;SDS011;20319;28.466;-16.274;2022-07-06T09:26:51;14.55;;;5.72;;
34030;SDS011;20319;28.466;-16.274;2022-07-06T09:29:30;17.17;;;8.63;;
34030;SDS011;20319;28.466;-16.274;2022-07-06T09:32:00;18.40;;;7.43;;
34030;SDS011;20319;28.466;-16.274;2022-07-06T09:34:44;6.90;;;2.88;;
34030;SDS011;20319;28.466;-16.274;2022-07-06T09:37:11;4.15;;;2.03;;
34030;SDS011;20319;28.466;-16.274;2022-07-06T09:39:38;8.27;;;3.80;;
34030;SDS011;20319;28.466;-16.274;2022-07-06T09:42:05;5.00;;;2.42;;
34030;SDS011;20319;28.466;-16.274;2022-07-06T09:44:37;4.45;;;1.90;;
34030;SDS011;20319;28.466;-16.274;2022-07-06T09:47:07;3.88;;;1.80;;
34030;SDS011;20319;28.466;-16.274;2022-07-06T09:49:34;8.52;;;1.98;;
34030;SDS011;20319;28.466;-16.274;2022-07-06T09:52:10;4.35;;;1.40;;
34030;SDS011;20319;28.466;-16.274;2022-07-06T09:54:36;5.97;;;3.13;;
34030;SDS011;20319;28.466;-16.274;2022-07-06T09:57:03;6.95;;;3.92;;
34030;SDS011;20319;28.466;-16.274;2022-07-06T09:59:31;6.05;;;2.60;;
34030;SDS011;20319;28.466;-16.274;2022-07-06T10:01:59;5.15;;;2.47;;
34030;SDS011;20319;28.466;-16.274;2022-07-06T10:04:27;5.03;;;2.15;;
34030;SDS011;20319;28.466;-16.274;2022-07-06T10:06:53;3.47;;;1.10;;
34030;SDS011;20319;28.466;-16.274;2022-07-06T10:09:21;3.33;;;1.65;;
34030;SDS011;20319;28.466;-16.274;2022-07-06T10:11:52;3.45;;;1.20;;
34030;SDS011;20319;28.466;-16.274;2022-07-06T10:14:22;4.07;;;1.33;;
34030;SDS011;20319;28.466;-16.274;2022-07-06T10:16:49;3.90;;;1.33;;
34030;SDS011;20319;28.466;-16.274;2022-07-06T10:19:16;6.13;;;1.50;;
34030;SDS011;20319;28.466;-16.274;2022-07-06T10:21:44;6.40;;;1.50;;
34030;SDS011;20319;28.466;-16.274;2022-07-06T10:24:10;5.50;;;1.55;;
34030;SDS011;20319;28.466;-16.274;2022-07-06T10:26:37;2.63;;;1.10;;
34030;SDS011;20319;28.466;-16.274;2022-07-06T10:29:05;3.63;;;1.35;;
34030;SDS011;20319;28.466;-16.274;2022-07-06T10:31:31;3.47;;;1.17;;
34030;SDS011;20319;28.466;-16.274;2022-07-06T10:34:01;2.03;;;1.05;;
34030;SDS011;20319;28.466;-16.274;2022-07-06T10:36:30;3.70;;;1.20;;
34030;SDS011;20319;28.466;-16.274;2022-07-06T10:38:55;4.13;;;1.77;;
34030;SDS011;20319;28.466;-16.274;2022-07-06T10:41:32;4.93;;;1.65;;
34030;SDS011;20319;28.466;-16.274;2022-07-06T10:44:16;5.57;;;1.30;;
34030;SDS011;20319;28.466;-16.274;2022-07-06T10:46:53;3.63;;;1.30;;
34030;SDS011;20319;28.466;-16.274;2022-07-06T10:49:21;3.95;;;1.80;;
34030;SDS011;20319;28.466;-16.274;2022-07-06T10:51:47;4.82;;;1.27;;
34030;SDS011;20319;28.466;-16.274;2022-07-06T10:54:14;6.05;;;1.35;;
34030;SDS011;20319;28.466;-16.274;2022-07-06T10:56:45;5.00;;;1.35;;
34030;SDS011;20319;28.466;-16.274;2022-07-06T10:59:13;2.85;;;1.20;;
34030;SDS011;20319;28.466;-16.274;2022-07-06T11:04:40;5.13;;;1.40;;
34030;SDS011;20319;28.466;-16.274;2022-07-06T11:07:08;3.22;;;1.30;;
34030;SDS011;20319;28.466;-16.274;2022-07-06T11:09:38;4.53;;;1.85;;
34030;SDS011;20319;28.466;-16.274;2022-07-06T11:14:46;4.35;;;1.23;;
34030;SDS011;20319;28.466;-16.274;2022-07-06T11:17:13;3.67;;;1.33;;
34030;SDS011;20319;28.466;-16.274;2022-07-06T11:20:08;4.60;;;1.27;;
34030;SDS011;20319;28.466;-16.274;2022-07-06T11:22:35;5.18;;;1.48;;
34030;SDS011;20319;28.466;-16.274;2022-07-06T11:25:02;4.25;;;1.33;;
34030;SDS011;20319;28.466;-16.274;2022-07-06T11:27:28;5.55;;;1.58;;
34030;SDS011;20319;28.466;-16.274;2022-07-06T11:29:54;7.05;;;1.70;;
34030;SDS011;20319;28.466;-16.274;2022-07-06T11:32:24;5.95;;;1.50;;
34030;SDS011;20319;28.466;-16.274;2022-07-06T11:34:51;4.15;;;1.30;;
34030;SDS011;20319;28.466;-16.274;2022-07-06T11:37:17;7.60;;;1.85;;
34030;SDS011;20319;28.466;-16.274;2022-07-06T11:39:45;3.63;;;1.23;;
34030;SDS011;20319;28.466;-16.274;2022-07-06T11:42:13;3.53;;;1.40;;
34030;SDS011;20319;28.466;-16.274;2022-07-06T11:44:41;5.55;;;1.90;;
34030;SDS011;20319;28.466;-16.274;2022-07-06T11:47:08;3.90;;;1.95;;
34030;SDS011;20319;28.466;-16.274;2022-07-06T11:49:35;3.65;;;1.70;;
34030;SDS011;20319;28.466;-16.274;2022-07-06T11:52:08;6.43;;;1.42;;
34030;SDS011;20319;28.466;-16.274;2022-07-06T11:54:38;4.60;;;1.70;;
34030;SDS011;20319;28.466;-16.274;2022-07-06T11:57:06;4.07;;;2.80;;
34030;SDS011;20319;28.466;-16.274;2022-07-06T11:59:35;5.20;;;2.10;;
34030;SDS011;20319;28.466;-16.274;2022-07-06T12:02:09;7.13;;;1.95;;
34030;SDS011;20319;28.466;-16.274;2022-07-06T12:04:38;5.47;;;1.80;;
34030;SDS011;20319;28.466;-16.274;2022-07-06T12:07:06;3.63;;;1.77;;
34030;SDS011;20319;28.466;-16.274;2022-07-06T12:09:35;5.93;;;1.65;;
34030;SDS011;20319;28.466;-16.274;2022-07-06T12:12:02;4.32;;;1.42;;
34030;SDS011;20319;28.466;-16.274;2022-07-06T12:14:32;3.83;;;1.45;;
34030;SDS011;20319;28.466;-16.274;2022-07-06T12:17:06;5.82;;;1.50;;
34030;SDS011;20319;28.466;-16.274;2022-07-06T12:19:33;3.45;;;1.42;;
34030;SDS011;20319;28.466;-16.274;2022-07-06T12:22:00;7.22;;;1.60;;
34030;SDS011;20319;28.466;-16.274;2022-07-06T12:24:30;4.03;;;1.27;;
34030;SDS011;20319;28.466;-16.274;2022-07-06T12:26:57;4.05;;;1.25;;
34030;SDS011;20319;28.466;-16.274;2022-07-06T12:29:24;3.60;;;1.30;;
34030;SDS011;20319;28.466;-16.274;2022-07-06T12:31:51;5.15;;;2.00;;
34030;SDS011;20319;28.466;-16.274;2022-07-06T12:36:54;4.43;;;1.65;;
34030;SDS011;20319;28.466;-16.274;2022-07-06T12:39:22;6.30;;;1.50;;
34030;SDS011;20319;28.466;-16.274;2022-07-06T12:41:53;4.75;;;1.33;;
34030;SDS011;20319;28.466;-16.274;2022-07-06T12:44:24;4.72;;;1.55;;
34030;SDS011;20319;28.466;-16.274;2022-07-06T12:47:01;5.05;;;1.42;;
34030;SDS011;20319;28.466;-16.274;2022-07-06T12:49:34;14.25;;;7.80;;
34030;SDS011;20319;28.466;-16.274;2022-07-06T12:52:21;8.05;;;2.90;;
34030;SDS011;20319;28.466;-16.274;2022-07-06T12:54:47;6.57;;;2.00;;
34030;SDS011;20319;28.466;-16.274;2022-07-06T12:57:16;7.10;;;1.70;;
34030;SDS011;20319;28.466;-16.274;2022-07-06T12:59:42;5.15;;;1.90;;
34030;SDS011;20319;28.466;-16.274;2022-07-06T13:02:16;5.03;;;1.52;;
34030;SDS011;20319;28.466;-16.274;2022-07-06T13:07:22;4.75;;;1.60;;
34030;SDS011;20319;28.466;-16.274;2022-07-06T13:09:48;7.57;;;1.60;;
34030;SDS011;20319;28.466;-16.274;2022-07-06T13:12:13;3.83;;;1.58;;
34030;SDS011;20319;28.466;-16.274;2022-07-06T13:14:39;6.30;;;2.03;;
34030;SDS011;20319;28.466;-16.274;2022-07-06T13:17:05;5.28;;;1.83;;
34030;SDS011;20319;28.466;-16.274;2022-07-06T13:19:30;7.22;;;1.70;;
34030;SDS011;20319;28.466;-16.274;2022-07-06T13:22:00;5.72;;;2.10;;
34030;SDS011;20319;28.466;-16.274;2022-07-06T13:24:27;5.32;;;2.22;;
34030;SDS011;20319;28.466;-16.274;2022-07-06T13:26:53;5.75;;;2.00;;
34030;SDS011;20319;28.466;-16.274;2022-07-06T13:29:20;3.42;;;1.77;;
34030;SDS011;20319;28.466;-16.274;2022-07-06T13:31:46;7.07;;;2.65;;
34030;SDS011;20319;28.466;-16.274;2022-07-06T13:34:12;8.15;;;4.35;;
34030;SDS011;20319;28.466;-16.274;2022-07-06T13:36:38;4.93;;;1.73;;
34030;SDS011;20319;28.466;-16.274;2022-07-06T13:39:11;4.88;;;2.00;;
34030;SDS011;20319;28.466;-16.274;2022-07-06T13:41:38;4.95;;;1.95;;
34030;SDS011;20319;28.466;-16.274;2022-07-06T13:44:04;7.28;;;2.00;;
34030;SDS011;20319;28.466;-16.274;2022-07-06T13:46:30;3.70;;;1.80;;
34030;SDS011;20319;28.466;-16.274;2022-07-06T13:49:04;5.93;;;1.77;;
34030;SDS011;20319;28.466;-16.274;2022-07-06T13:51:30;7.90;;;2.22;;
34030;SDS011;20319;28.466;-16.274;2022-07-06T13:53:57;7.80;;;3.80;;
34030;SDS011;20319;28.466;-16.274;2022-07-06T13:56:24;4.38;;;1.63;;
34030;SDS011;20319;28.466;-16.274;2022-07-06T13:58:50;7.07;;;2.22;;
34030;SDS011;20319;28.466;-16.274;2022-07-06T14:01:17;4.47;;;1.90;;
34030;SDS011;20319;28.466;-16.274;2022-07-06T14:03:43;12.82;;;3.55;;
34030;SDS011;20319;28.466;-16.274;2022-07-06T14:06:08;8.13;;;2.30;;
34030;SDS011;20319;28.466;-16.274;2022-07-06T14:08:35;8.27;;;1.88;;
34030;SDS011;20319;28.466;-16.274;2022-07-06T14:11:02;7.75;;;2.00;;
34030;SDS011;20319;28.466;-16.274;2022-07-06T14:13:29;6.38;;;1.83;;
34030;SDS011;20319;28.466;-16.274;2022-07-06T14:15:55;5.22;;;1.70;;
34030;SDS011;20319;28.466;-16.274;2022-07-06T14:18:21;5.25;;;2.00;;
34030;SDS011;20319;28.466;-16.274;2022-07-06T14:20:47;4.25;;;1.60;;
34030;SDS011;20319;28.466;-16.274;2022-07-06T14:23:14;4.72;;;1.98;;
34030;SDS011;20319;28.466;-16.274;2022-07-06T14:25:41;7.25;;;3.00;;
34030;SDS011;20319;28.466;-16.274;2022-07-06T14:28:07;6.65;;;2.47;;
34030;SDS011;20319;28.466;-16.274;2022-07-06T14:30:34;5.00;;;2.08;;
34030;SDS011;20319;28.466;-16.274;2022-07-06T14:33:03;5.68;;;1.77;;
34030;SDS011;20319;28.466;-16.274;2022-07-06T14:35:35;4.95;;;1.80;;